Time;durP1;ratioP1;P1;durP2;ratioP2;P2;SDS_P1;SDS_P2;PMS_P1;PMS_P2;Temp;Humidity;BMP_temperature;BMP_pressure;BME280_temperature;BME280_humidity;BME280_pressure;Samples;Min_cycle;Max_cycle;Signal;HPM_P1;HPM_P2
2023/07/11 00:00:48;;;;;;;6.67;4.77;;;;;19.60;97163.00;;;;5003010;28;20202;-70
2023/07/11 00:03:37;;;;;;;6.07;4.63;;;;;20.10;97168.00;;;;5022329;28;20671;-70
2023/07/11 00:06:26;;;;;;;4.37;3.80;;;;;20.30;97170.00;;;;5009232;28;20206;-70
2023/07/11 00:09:17;;;;;;;10.77;4.93;;;;;20.10;97158.00;;;;5009494;28;20206;-70
2023/07/11 00:12:07;;;;;;;5.30;4.33;;;;;20.30;97173.00;;;;5014232;28;20604;-70
2023/07/11 00:14:57;;;;;;;7.17;4.97;;;;;20.10;97157.00;;;;5033210;28;20202;-70
2023/07/11 00:17:47;;;;;;;6.07;4.80;;;;;20.10;97161.00;;;;5031408;28;20583;-71
2023/07/11 00:20:37;;;;;;;4.83;4.17;;;;;20.00;97163.00;;;;5031973;28;20201;-70
2023/07/11 00:23:26;;;;;;;5.40;4.60;;;;;19.80;97155.00;;;;5018392;28;20213;-71
2023/07/11 00:26:17;;;;;;;8.10;5.60;;;;;19.70;97163.00;;;;5013480;28;20206;-71
2023/07/11 00:29:17;;;;;;;8.50;4.67;;;;;19.40;97163.00;;;;5007479;28;20202;-70
2023/07/11 00:32:06;;;;;;;7.30;4.17;;;;;19.70;97149.00;;;;5012315;28;20236;-71
2023/07/11 00:34:55;;;;;;;5.80;4.00;;;;;19.40;97154.00;;;;5005825;28;20202;-70
2023/07/11 00:37:45;;;;;;;8.40;4.70;;;;;19.60;97160.00;;;;5011552;28;20209;-70
2023/07/11 00:40:34;;;;;;;9.20;4.90;;;;;19.70;97159.00;;;;5011580;28;20589;-71
2023/07/11 00:43:24;;;;;;;5.43;4.97;;;;;19.20;97150.00;;;;5014105;28;20601;-70
2023/07/11 00:46:15;;;;;;;10.30;5.30;;;;;19.00;97160.00;;;;5012512;28;20317;-70
2023/07/11 00:49:04;;;;;;;5.63;5.13;;;;;19.30;97156.00;;;;5007463;28;20214;-71
2023/07/11 00:51:56;;;;;;;5.03;4.33;;;;;19.60;97153.00;;;;5010972;28;20772;-71
2023/07/11 00:54:48;;;;;;;6.70;5.13;;;;;19.70;97158.00;;;;5005751;28;20587;-70
2023/07/11 00:57:39;;;;;;;6.07;4.60;;;;;19.50;97146.00;;;;5011158;28;20206;-68
2023/07/11 01:00:30;;;;;;;6.50;4.70;;;;;19.00;97151.00;;;;5010746;28;20689;-70
2023/07/11 01:03:19;;;;;;;5.93;4.87;;;;;19.10;97146.00;;;;5013432;28;20987;-71
2023/07/11 01:06:12;;;;;;;7.20;4.77;;;;;18.90;97151.00;;;;5008085;28;20816;-71
2023/07/11 01:09:04;;;;;;;7.23;5.63;;;;;18.80;97146.00;;;;5012180;28;20205;-71
2023/07/11 01:11:56;;;;;;;6.73;4.17;;;;;18.70;97146.00;;;;5008068;28;20689;-72
2023/07/11 01:14:51;;;;;;;5.50;4.30;;;;;19.20;97139.00;;;;5019934;28;20210;-72
2023/07/11 01:17:41;;;;;;;6.53;4.93;;;;;19.20;97144.00;;;;5012738;28;20260;-71
2023/07/11 01:20:31;;;;;;;6.40;4.60;;;;;19.10;97142.00;;;;5011253;28;20229;-72
2023/07/11 01:23:23;;;;;;;6.63;4.73;;;;;19.20;97137.00;;;;5016058;28;20233;-72
2023/07/11 01:26:12;;;;;;;7.33;5.30;;;;;19.50;97132.00;;;;5030976;28;20565;-72
2023/07/11 01:29:01;;;;;;;5.87;4.70;;;;;19.40;97134.00;;;;5031247;28;20208;-71
2023/07/11 01:31:50;;;;;;;10.40;5.13;;;;;19.60;97129.00;;;;5003460;28;20229;-72
2023/07/11 01:34:39;;;;;;;6.23;4.93;;;;;19.90;97124.00;;;;5011812;28;20210;-72
2023/07/11 01:37:28;;;;;;;6.77;5.30;;;;;19.70;97122.00;;;;5011008;28;20209;-72
2023/07/11 01:40:19;;;;;;;6.10;4.13;;;;;19.10;97120.00;;;;5007682;28;20209;-72
2023/07/11 01:43:08;;;;;;;9.10;5.80;;;;;19.50;97125.00;;;;5006682;28;20230;-71
2023/07/11 01:45:57;;;;;;;8.20;4.53;;;;;19.70;97125.00;;;;5005003;28;20208;-72
2023/07/11 01:48:46;;;;;;;8.67;4.90;;;;;19.30;97128.00;;;;5022852;28;20194;-71
2023/07/11 01:51:35;;;;;;;5.80;5.23;;;;;19.60;97127.00;;;;5029472;28;20239;-71
2023/07/11 01:54:24;;;;;;;9.17;5.33;;;;;19.80;97122.00;;;;5030052;28;20205;-71
2023/07/11 01:57:15;;;;;;;7.93;4.70;;;;;19.60;97119.00;;;;5029729;28;20596;-72
2023/07/11 02:00:07;;;;;;;7.27;5.03;;;;;19.10;97126.00;;;;5031126;28;20586;-71
2023/07/11 02:02:56;;;;;;;6.87;5.83;;;;;19.00;97117.00;;;;5031040;28;20229;-71
2023/07/11 02:05:45;;;;;;;7.10;5.47;;;;;18.90;97124.00;;;;5010592;28;20221;-71
2023/07/11 02:08:34;;;;;;;11.30;6.07;;;;;18.80;97116.00;;;;5010257;28;20206;-72
2023/07/11 02:11:23;;;;;;;7.13;5.53;;;;;18.70;97111.00;;;;5008911;28;20233;-71
2023/07/11 02:14:17;;;;;;;8.50;4.77;;;;;19.20;97116.00;;;;5006505;28;20213;-71
2023/07/11 02:17:06;;;;;;;8.47;5.07;;;;;19.10;97104.00;;;;5010603;28;20210;-70
2023/07/11 02:19:55;;;;;;;7.43;5.60;;;;;18.80;97119.00;;;;5010534;28;20801;-71
2023/07/11 02:22:44;;;;;;;6.03;5.40;;;;;18.80;97115.00;;;;5009291;28;21087;-72
2023/07/11 02:25:33;;;;;;;6.97;5.50;;;;;18.80;97115.00;;;;5029638;28;20201;-71
2023/07/11 02:28:22;;;;;;;5.30;4.80;;;;;18.90;97125.00;;;;5030371;28;20567;-71
2023/07/11 02:31:14;;;;;;;7.63;5.00;;;;;19.00;97109.00;;;;5028661;28;20205;-71
2023/07/11 02:34:04;;;;;;;8.50;5.33;;;;;19.00;97115.00;;;;5030642;28;20242;-71
2023/07/11 02:36:53;;;;;;;9.60;5.43;;;;;19.10;97112.00;;;;5029050;28;20201;-72
2023/07/11 02:39:42;;;;;;;7.60;5.70;;;;;19.30;97106.00;;;;5009007;28;20209;-71
2023/07/11 02:42:32;;;;;;;6.20;5.03;;;;;19.20;97107.00;;;;5010096;28;20232;-71
2023/07/11 02:45:21;;;;;;;6.77;5.03;;;;;19.20;97107.00;;;;5010610;28;20206;-71
2023/07/11 02:48:11;;;;;;;11.57;5.50;;;;;18.70;97109.00;;;;5010756;28;20216;-71
2023/07/11 02:51:00;;;;;;;6.50;5.90;;;;;18.80;97108.00;;;;5004376;28;20212;-71
2023/07/11 02:53:49;;;;;;;8.57;4.87;;;;;18.80;97107.00;;;;5010289;28;20203;-71
2023/07/11 02:56:39;;;;;;;7.40;5.13;;;;;19.10;97107.00;;;;5009826;28;20202;-71
2023/07/11 02:59:28;;;;;;;8.23;5.63;;;;;19.10;97114.00;;;;5009335;28;20216;-71
2023/07/11 03:02:17;;;;;;;8.47;5.90;;;;;18.70;97118.00;;;;5009697;28;20230;-71
2023/07/11 03:05:08;;;;;;;6.97;5.77;;;;;18.80;97115.00;;;;5026145;28;20784;-71
2023/07/11 03:07:57;;;;;;;9.43;6.60;;;;;19.00;97120.00;;;;5030223;28;20592;-71
2023/07/11 03:10:46;;;;;;;7.50;6.23;;;;;18.90;97118.00;;;;5001294;28;20202;-70
2023/07/11 03:13:35;;;;;;;6.47;5.00;;;;;18.40;97116.00;;;;5027439;28;20221;-70
2023/07/11 03:16:24;;;;;;;8.47;5.57;;;;;18.40;97111.00;;;;5027488;28;20329;-70
2023/07/11 03:19:13;;;;;;;10.80;5.77;;;;;18.40;97114.00;;;;5028097;28;20599;-70
2023/07/11 03:22:04;;;;;;;9.73;5.80;;;;;18.60;97114.00;;;;5001990;28;20225;-71
2023/07/11 03:24:53;;;;;;;6.50;5.73;;;;;18.50;97115.00;;;;5002865;28;20194;-70
2023/07/11 03:27:42;;;;;;;9.00;6.03;;;;;18.60;97112.00;;;;5009932;28;20198;-70
2023/07/11 03:30:32;;;;;;;9.37;5.87;;;;;18.70;97111.00;;;;5007141;28;20209;-71
2023/07/11 03:33:21;;;;;;;7.13;5.30;;;;;18.80;97107.00;;;;5009785;28;20229;-71
2023/07/11 03:36:10;;;;;;;6.50;5.90;;;;;18.50;97102.00;;;;5004556;28;20213;-70
2023/07/11 03:39:01;;;;;;;8.33;5.43;;;;;18.10;97108.00;;;;5009095;28;20204;-71
2023/07/11 03:41:49;;;;;;;7.83;5.93;;;;;18.00;97119.00;;;;5001770;28;20224;-71
2023/07/11 03:44:40;;;;;;;7.43;5.20;;;;;18.40;97112.00;;;;5009056;28;20232;-71
2023/07/11 03:47:29;;;;;;;5.53;5.00;;;;;18.50;97103.00;;;;5009601;28;20579;-71
2023/07/11 03:50:18;;;;;;;6.57;5.47;;;;;18.50;97108.00;;;;5008677;28;20861;-70
2023/07/11 03:53:07;;;;;;;13.53;5.83;;;;;18.50;97102.00;;;;5003973;28;20233;-71
2023/07/11 03:55:58;;;;;;;6.90;5.37;;;;;18.70;97110.00;;;;5002900;28;20671;-71
2023/07/11 03:58:47;;;;;;;8.27;6.43;;;;;18.80;97103.00;;;;5013475;28;20212;-70
2023/07/11 04:01:36;;;;;;;7.13;5.40;;;;;19.10;97101.00;;;;5017369;28;20241;-70
2023/07/11 04:04:25;;;;;;;6.33;5.73;;;;;19.20;97098.00;;;;5011313;28;20213;-71
2023/07/11 04:07:14;;;;;;;12.83;5.27;;;;;19.40;97102.00;;;;5009651;28;20206;-71
2023/07/11 04:10:05;;;;;;;10.30;4.60;;;;;19.60;97105.00;;;;5007296;28;20213;-71
2023/07/11 04:12:55;;;;;;;7.47;5.03;;;;;19.40;97096.00;;;;5022457;28;20233;-71
2023/07/11 04:15:44;;;;;;;8.33;5.23;;;;;19.00;97097.00;;;;5027313;28;20697;-71
2023/07/11 04:18:33;;;;;;;8.03;4.87;;;;;19.00;97093.00;;;;5026084;28;20201;-71
2023/07/11 04:21:22;;;;;;;10.87;5.40;;;;;19.00;97098.00;;;;5006105;28;20218;-71
2023/07/11 04:24:11;;;;;;;5.10;4.57;;;;;19.20;97103.00;;;;5012896;28;20197;-71
2023/07/11 04:27:00;;;;;;;7.23;6.13;;;;;19.00;97105.00;;;;5003647;28;20206;-71
2023/07/11 04:29:51;;;;;;;6.53;5.10;;;;;19.20;97108.00;;;;5028590;28;20215;-71
2023/07/11 04:32:40;;;;;;;6.40;4.70;;;;;18.70;97105.00;;;;5027337;28;20229;-71
2023/07/11 04:35:30;;;;;;;7.17;6.20;;;;;19.00;97100.00;;;;5027351;28;20212;-71
2023/07/11 04:38:19;;;;;;;7.33;5.53;;;;;19.20;97098.00;;;;5014739;28;20948;-70
2023/07/11 04:41:08;;;;;;;6.23;5.17;;;;;19.00;97098.00;;;;5003398;28;20217;-71
2023/07/11 04:43:57;;;;;;;6.90;6.13;;;;;18.90;97099.00;;;;5002794;28;20205;-71
2023/07/11 04:46:48;;;;;;;6.20;5.40;;;;;18.90;97099.00;;;;5008988;28;20210;-70
2023/07/11 04:49:38;;;;;;;6.70;5.63;;;;;18.90;97106.00;;;;5008702;28;20233;-72
2023/07/11 04:52:27;;;;;;;8.00;6.20;;;;;19.10;97104.00;;;;5005771;28;20232;-72
2023/07/11 04:55:17;;;;;;;8.13;5.67;;;;;19.20;97101.00;;;;4998558;28;20704;-71
2023/07/11 04:58:06;;;;;;;9.50;6.23;;;;;19.50;97102.00;;;;5003941;28;20217;-71
2023/07/11 05:01:00;;;;;;;10.80;5.30;;;;;20.10;97102.00;;;;5024586;28;20202;-71
2023/07/11 05:03:51;;;;;;;13.00;5.77;;;;;20.50;97113.00;;;;5010760;23;20257;-84
2023/07/11 05:06:41;;;;;;;8.10;5.50;;;;;20.30;97098.00;;;;4999405;28;20217;-81
2023/07/11 05:09:31;;;;;;;6.27;5.60;;;;;20.50;97110.00;;;;5009901;28;20210;-83
2023/07/11 05:12:20;;;;;;;10.30;6.60;;;;;20.50;97115.00;;;;5004834;28;20707;-81
2023/07/11 05:15:11;;;;;;;11.03;5.70;;;;;21.00;97108.00;;;;5018207;23;20213;-87
2023/07/11 05:18:00;;;;;;;7.03;5.33;;;;;21.20;97113.00;;;;5029705;28;20219;-90
2023/07/11 05:20:55;;;;;;;10.03;6.23;;;;;21.00;97107.00;;;;5022162;28;20755;-88
2023/07/11 05:23:44;;;;;;;6.27;5.70;;;;;21.30;97103.00;;;;5015059;28;20594;-88
2023/07/11 05:26:33;;;;;;;6.67;5.87;;;;;21.40;97112.00;;;;5006268;28;20685;-87
2023/07/11 05:29:23;;;;;;;8.30;5.40;;;;;21.60;97105.00;;;;5009863;28;20213;-87
2023/07/11 05:32:12;;;;;;;6.57;5.50;;;;;21.60;97103.00;;;;5011462;28;20233;-87
2023/07/11 05:35:01;;;;;;;8.80;5.03;;;;;21.70;97102.00;;;;5009826;28;20283;-87
2023/07/11 05:37:51;;;;;;;9.00;5.63;;;;;21.60;97103.00;;;;5005876;28;20218;-88
2023/07/11 05:40:42;;;;;;;8.57;5.73;;;;;21.60;97102.00;;;;5011930;28;20206;-89
2023/07/11 05:43:31;;;;;;;5.97;5.20;;;;;21.80;97105.00;;;;5006720;28;20230;-88
2023/07/11 05:46:20;;;;;;;9.27;6.20;;;;;22.10;97107.00;;;;5003189;28;20202;-88
2023/07/11 05:49:10;;;;;;;5.90;5.30;;;;;22.30;97104.00;;;;5011772;28;20229;-87
2023/07/11 05:51:59;;;;;;;7.90;5.93;;;;;22.30;97111.00;;;;5016269;28;20242;-87
2023/07/11 05:54:50;;;;;;;9.83;6.63;;;;;22.50;97106.00;;;;5017805;28;20230;-90
2023/07/11 05:57:39;;;;;;;5.97;5.37;;;;;22.70;97113.00;;;;5015997;28;20198;-87
2023/07/11 06:00:29;;;;;;;10.73;6.73;;;;;22.80;97112.00;;;;5009976;28;20202;-87
2023/07/11 06:03:18;;;;;;;10.03;6.50;;;;;22.90;97117.00;;;;5014207;28;20719;-87
2023/07/11 06:06:08;;;;;;;9.80;6.87;;;;;23.10;97111.00;;;;5004362;28;20760;-88
2023/07/11 06:08:58;;;;;;;8.00;6.67;;;;;23.20;97115.00;;;;5008664;28;20202;-87
2023/07/11 06:11:49;;;;;;;6.57;5.53;;;;;23.60;97118.00;;;;5011557;28;20226;-87
2023/07/11 06:14:38;;;;;;;10.83;6.47;;;;;23.80;97118.00;;;;5005418;28;20230;-87
2023/07/11 06:17:28;;;;;;;10.57;6.27;;;;;23.90;97110.00;;;;5007493;28;20213;-90
2023/07/11 06:20:17;;;;;;;9.00;6.37;;;;;24.10;97112.00;;;;5012088;28;20220;-88
2023/07/11 06:23:06;;;;;;;8.40;5.40;;;;;24.50;97109.00;;;;5013669;28;20241;-88
2023/07/11 06:25:55;;;;;;;7.77;5.87;;;;;24.60;97104.00;;;;5010765;28;20432;-86
2023/07/11 06:28:46;;;;;;;8.80;6.63;;;;;24.80;97111.00;;;;5005292;28;20234;-87
2023/07/11 06:31:35;;;;;;;11.13;7.53;;;;;24.80;97098.00;;;;5015887;28;20590;-88
2023/07/11 06:34:25;;;;;;;15.50;6.93;;;;;25.00;97105.00;;;;5015394;28;20218;-87
2023/07/11 06:37:14;;;;;;;7.83;6.60;;;;;25.30;97111.00;;;;5011738;28;20205;-87
2023/07/11 06:40:08;;;;;;;7.40;6.13;;;;;25.50;97103.00;;;;5013908;28;20218;-88
2023/07/11 06:42:57;;;;;;;7.43;5.53;;;;;25.80;97094.00;;;;5013745;28;20755;-86
2023/07/11 06:45:48;;;;;;;9.87;7.20;;;;;25.90;97092.00;;;;5011288;28;20214;-88
2023/07/11 06:48:37;;;;;;;6.77;5.37;;;;;25.90;97096.00;;;;5011716;28;20234;-88
2023/07/11 06:51:26;;;;;;;8.80;6.10;;;;;25.70;97102.00;;;;5019139;28;20209;-89
2023/07/11 06:54:16;;;;;;;8.77;6.50;;;;;26.10;97099.00;;;;5016163;28;20249;-88
2023/07/11 06:57:05;;;;;;;6.90;6.10;;;;;26.40;97099.00;;;;5011035;28;20202;-86
2023/07/11 06:59:54;;;;;;;7.87;6.47;;;;;26.70;97090.00;;;;5010286;28;20209;-86
2023/07/11 07:02:46;;;;;;;11.10;6.77;;;;;26.80;97095.00;;;;5018244;28;20234;-87
2023/07/11 07:05:35;;;;;;;7.30;6.17;;;;;27.00;97095.00;;;;5012118;28;20245;-88
2023/07/11 07:08:25;;;;;;;9.27;6.27;;;;;27.20;97097.00;;;;5012914;28;20212;-90
2023/07/11 07:11:14;;;;;;;11.30;6.43;;;;;27.30;97090.00;;;;5008666;28;20198;-89
2023/07/11 07:14:07;;;;;;;12.73;6.67;;;;;27.40;97094.00;;;;5006930;28;20233;-87
2023/07/11 07:16:56;;;;;;;8.77;6.07;;;;;27.60;97085.00;;;;5007138;28;20246;-87
2023/07/11 07:19:47;;;;;;;9.77;6.80;;;;;27.70;97083.00;;;;5007124;28;20207;-87
2023/07/11 07:22:36;;;;;;;13.20;6.77;;;;;27.70;97089.00;;;;5008730;28;20230;-87
2023/07/11 07:25:27;;;;;;;7.33;6.17;;;;;27.70;97089.00;;;;5011611;28;20401;-86
2023/07/11 07:28:16;;;;;;;10.60;5.80;;;;;27.80;97083.00;;;;5008941;28;20696;-87
2023/07/11 07:31:06;;;;;;;6.83;5.67;;;;;28.10;97083.00;;;;5012243;28;20208;-86
2023/07/11 07:33:55;;;;;;;11.07;6.07;;;;;28.20;97076.00;;;;5010335;28;20235;-87
2023/07/11 07:36:46;;;;;;;7.53;6.13;;;;;28.50;97080.00;;;;5009113;28;20201;-88
2023/07/11 07:39:35;;;;;;;14.37;6.93;;;;;28.70;97077.00;;;;5001574;28;20196;-87
2023/07/11 07:42:24;;;;;;;11.17;6.10;;;;;29.00;97077.00;;;;5010522;28;20244;-90
2023/07/11 07:45:13;;;;;;;17.20;7.93;;;;;29.00;97079.00;;;;5011448;28;20207;-86
2023/07/11 07:48:02;;;;;;;7.17;5.83;;;;;29.10;97073.00;;;;5004566;28;20212;-87
2023/07/11 07:50:52;;;;;;;9.80;6.57;;;;;29.40;97069.00;;;;5001743;28;20295;-87
2023/07/11 07:53:42;;;;;;;8.60;6.23;;;;;29.40;97068.00;;;;5008544;28;20591;-87
2023/07/11 07:56:31;;;;;;;10.43;6.27;;;;;29.70;97065.00;;;;5010403;28;20208;-86
2023/07/11 07:59:20;;;;;;;11.57;8.10;;;;;29.80;97075.00;;;;5014529;28;20686;-88
2023/07/11 08:02:10;;;;;;;8.00;7.20;;;;;30.00;97077.00;;;;5004854;28;20723;-86
2023/07/11 08:04:59;;;;;;;10.23;6.10;;;;;30.20;97072.00;;;;5006590;28;20200;-86
2023/07/11 08:07:49;;;;;;;9.67;7.43;;;;;30.40;97081.00;;;;5011000;28;20215;-87
2023/07/11 08:10:39;;;;;;;7.50;5.93;;;;;30.60;97081.00;;;;5009558;28;20205;-88
2023/07/11 08:13:28;;;;;;;7.77;5.73;;;;;30.80;97086.00;;;;5011000;28;20231;-87
2023/07/11 08:16:19;;;;;;;12.20;6.97;;;;;30.70;97075.00;;;;5010245;28;20208;-88
2023/07/11 08:19:15;;;;;;;9.63;5.70;;;;;30.40;97084.00;;;;5003586;28;20205;-87
2023/07/11 08:22:06;;;;;;;10.33;6.73;;;;;30.90;97082.00;;;;5004069;28;20614;-86
2023/07/11 08:24:55;;;;;;;8.37;7.47;;;;;30.90;97089.00;;;;4999803;28;20195;-86
2023/07/11 08:27:46;;;;;;;8.93;7.00;;;;;30.90;97079.00;;;;5008522;28;20820;-86
2023/07/11 08:30:36;;;;;;;8.40;6.63;;;;;31.00;97077.00;;;;5006688;28;20198;-86
2023/07/11 08:33:25;;;;;;;8.43;6.40;;;;;31.50;97074.00;;;;5001707;28;20719;-90
2023/07/11 08:36:14;;;;;;;9.00;6.73;;;;;31.70;97077.00;;;;5014468;28;20708;-86
2023/07/11 08:39:03;;;;;;;6.50;5.90;;;;;31.90;97072.00;;;;5008807;28;20214;-89
2023/07/11 08:41:55;;;;;;;7.83;6.50;;;;;32.00;97069.00;;;;5007231;28;20215;-87
2023/07/11 08:44:49;;;;;;;7.53;6.20;;;;;32.10;97070.00;;;;5013225;28;20218;-86
2023/07/11 08:47:40;;;;;;;8.73;6.40;;;;;32.30;97061.00;;;;5006740;28;20577;-86
2023/07/11 08:50:32;;;;;;;7.80;6.32;;;;;32.60;97055.00;;;;5007412;28;20213;-86
2023/07/11 08:53:27;;;;;;;10.07;6.30;;;;;32.70;97051.00;;;;5008137;28;20225;-89
2023/07/11 08:56:23;;;;;;;8.90;6.45;;;;;32.90;97061.00;;;;5009756;28;20244;-87
2023/07/11 08:59:16;;;;;;;9.77;6.05;;;;;33.20;97051.00;;;;5009715;28;20705;-87
2023/07/11 09:02:29;;;;;;;6.60;5.93;;;;;33.50;97054.00;;;;5008854;28;20280;-86
2023/07/11 09:05:35;;;;;;;7.47;6.25;;;;;33.20;97051.00;;;;5018140;28;20202;-88
2023/07/11 09:08:24;;;;;;;7.32;6.30;;;;;33.40;97054.00;;;;5012393;28;20212;-87
2023/07/11 09:11:16;;;;;;;8.43;6.22;;;;;33.60;97048.00;;;;5011516;28;20203;-87
2023/07/11 09:14:14;;;;;;;8.82;6.05;;;;;33.90;97057.00;;;;5009093;28;20220;-85
2023/07/11 09:17:12;;;;;;;8.93;5.97;;;;;33.70;97056.00;;;;5007416;28;20210;-87
2023/07/11 09:20:14;;;;;;;10.77;6.28;;;;;33.80;97060.00;;;;5008773;28;20209;-86
2023/07/11 09:23:13;;;;;;;6.72;5.93;;;;;33.80;97055.00;;;;5013093;28;20236;-87
2023/07/11 09:26:08;;;;;;;5.70;5.10;;;;;33.80;97058.00;;;;5010716;28;20251;-88
2023/07/11 09:29:01;;;;;;;7.28;6.30;;;;;33.20;97055.00;;;;5009582;28;20208;-85
2023/07/11 09:31:54;;;;;;;7.30;6.35;;;;;33.20;97050.00;;;;5006862;28;20247;-89
2023/07/11 09:34:46;;;;;;;7.07;6.38;;;;;33.30;97047.00;;;;5003510;28;20205;-87
2023/07/11 09:37:41;;;;;;;7.07;6.30;;;;;33.60;97043.00;;;;5017712;28;20583;-88
2023/07/11 09:40:40;;;;;;;7.50;6.78;;;;;32.90;97045.00;;;;5009596;28;20199;-89
2023/07/11 09:43:29;;;;;;;7.40;5.88;;;;;33.70;97050.00;;;;5010206;28;20275;-88
2023/07/11 09:46:22;;;;;;;7.50;6.28;;;;;33.70;97050.00;;;;5011250;28;20197;-88
2023/07/11 09:49:21;;;;;;;9.27;6.05;;;;;34.20;97052.00;;;;5007461;28;20882;-88
2023/07/11 09:52:14;;;;;;;8.85;6.45;;;;;33.50;97047.00;;;;5006861;28;20225;-88
2023/07/11 09:55:03;;;;;;;6.78;6.13;;;;;33.70;97047.00;;;;5018892;28;20232;-87
2023/07/11 09:57:56;;;;;;;6.90;5.65;;;;;33.60;97046.00;;;;5014179;28;20748;-87
2023/07/11 10:00:46;;;;;;;7.15;6.40;;;;;34.90;97043.00;;;;5008650;28;20211;-86
2023/07/11 10:03:35;;;;;;;10.27;6.65;;;;;35.40;97043.00;;;;5012019;28;20614;-87
2023/07/11 10:06:33;;;;;;;6.43;5.85;;;;;35.40;97046.00;;;;5005839;28;20217;-87
2023/07/11 10:09:28;;;;;;;8.40;6.22;;;;;35.00;97045.00;;;;5011878;28;20587;-88
2023/07/11 10:12:21;;;;;;;7.07;6.07;;;;;34.40;97042.00;;;;5014831;28;20242;-89
2023/07/11 10:15:16;;;;;;;10.23;6.53;;;;;35.40;97038.00;;;;5012938;28;20223;-88
2023/07/11 10:18:06;;;;;;;14.02;7.68;;;;;35.00;97037.00;;;;5027981;23;20591;-74
2023/07/11 10:20:58;;;;;;;6.95;6.35;;;;;35.50;97049.00;;;;5000455;28;20210;-73
2023/07/11 10:23:49;;;;;;;9.02;6.28;;;;;34.90;97041.00;;;;5001755;28;20232;-74
2023/07/11 10:26:40;;;;;;;6.57;5.97;;;;;33.90;97042.00;;;;5001556;28;20590;-73
2023/07/11 10:29:32;;;;;;;9.00;6.47;;;;;33.90;97038.00;;;;4999085;28;20202;-74
2023/07/11 10:32:26;;;;;;;7.15;6.43;;;;;34.40;97040.00;;;;5002619;28;20224;-74
2023/07/11 10:35:18;;;;;;;7.45;6.75;;;;;35.00;97048.00;;;;5003766;28;20394;-74
2023/07/11 10:38:17;;;;;;;7.30;6.40;;;;;34.70;97040.00;;;;5003989;28;20217;-74
2023/07/11 10:41:06;;;;;;;9.40;6.75;;;;;34.10;97027.00;;;;5002931;28;20211;-72
2023/07/11 10:43:57;;;;;;;10.73;6.38;;;;;34.20;97027.00;;;;5003682;28;20233;-74
2023/07/11 10:46:48;;;;;;;7.63;6.15;;;;;34.60;97023.00;;;;5002974;28;20663;-74
2023/07/11 10:49:41;;;;;;;7.47;6.22;;;;;34.50;97015.00;;;;5000790;28;20212;-75
2023/07/11 10:52:32;;;;;;;7.03;5.85;;;;;35.60;97016.00;;;;5002290;28;20693;-74
2023/07/11 10:55:24;;;;;;;7.90;6.43;;;;;35.70;97012.00;;;;5004444;28;20209;-74
2023/07/11 10:58:14;;;;;;;14.50;7.53;;;;;35.90;97007.00;;;;5002968;28;20723;-74
2023/07/11 11:01:15;;;;;;;10.20;6.43;;;;;35.50;97010.00;;;;5002050;28;20201;-73
2023/07/11 11:04:13;;;;;;;9.23;6.45;;;;;35.00;96992.00;;;;5021556;23;20299;-91
2023/07/11 11:07:07;;;;;;;6.13;5.53;;;;;36.00;97008.00;;;;5021319;28;20204;-91
2023/07/11 11:10:04;;;;;;;11.80;8.15;;;;;36.40;96999.00;;;;5023770;28;20204;-90
2023/07/11 11:13:00;;;;;;;9.15;5.97;;;;;37.20;97005.00;;;;5021918;28;20594;-92
2023/07/11 11:15:56;;;;;;;7.60;6.22;;;;;36.90;96988.00;;;;5025842;28;20211;-91
2023/07/11 11:18:58;;;;;;;7.93;6.03;;;;;36.50;96978.00;;;;5028962;28;20228;-92
2023/07/11 11:21:54;;;;;;;7.28;6.57;;;;;37.40;96989.00;;;;5027691;28;20594;-91
2023/07/11 11:24:50;;;;;;;12.93;7.25;;;;;37.90;96981.00;;;;5027952;28;20302;-92
2023/07/11 11:27:48;;;;;;;9.13;6.18;;;;;38.00;96988.00;;;;5029343;28;20243;-92
2023/07/11 11:30:43;;;;;;;9.68;6.65;;;;;38.30;96980.00;;;;5028967;28;20207;-91
2023/07/11 11:33:48;;;;;;;7.47;5.57;;;;;37.30;96976.00;;;;5029060;28;20212;-92
2023/07/11 11:36:47;;;;;;;6.60;5.90;;;;;37.60;96971.00;;;;5030923;28;20683;-92
2023/07/11 11:39:45;;;;;;;6.93;5.20;;;;;37.00;96972.00;;;;5026239;28;20205;-92
2023/07/11 11:42:35;;;;;;;7.13;6.43;;;;;37.70;96973.00;;;;5020836;28;20201;-90
2023/07/11 11:45:25;;;;;;;6.35;5.78;;;;;36.40;96958.00;;;;5021264;28;20211;-90
2023/07/11 11:48:20;;;;;;;7.60;6.00;;;;;36.50;96964.00;;;;5023948;28;20218;-91
2023/07/11 11:51:15;;;;;;;7.30;6.53;;;;;37.20;96962.00;;;;5015228;28;20594;-90
2023/07/11 11:54:20;;;;;;;6.43;5.82;;;;;37.20;96964.00;;;;5015421;28;20211;-91
2023/07/11 11:57:15;;;;;;;15.52;8.68;;;;;37.90;96959.00;;;;5018402;28;20226;-91
2023/07/11 12:00:05;;;;;;;6.15;5.65;;;;;38.60;96947.00;;;;5023228;28;20209;-91
2023/07/11 12:02:55;;;;;;;8.18;6.70;;;;;36.80;96951.00;;;;5024408;28;20247;-92
2023/07/11 12:05:49;;;;;;;8.93;5.78;;;;;37.30;96953.00;;;;5019889;28;20257;-91
2023/07/11 12:08:39;;;;;;;9.63;6.85;;;;;37.70;96957.00;;;;5024805;28;20499;-91
2023/07/11 12:11:33;;;;;;;8.57;6.03;;;;;38.40;96947.00;;;;5027252;28;20201;-91
2023/07/11 12:14:30;;;;;;;6.97;6.35;;;;;38.40;96952.00;;;;5024939;28;20641;-91
2023/07/11 12:17:45;;;;;;;8.45;6.45;;;;;39.00;96947.00;;;;5020867;28;20269;-92
2023/07/11 12:20:34;;;;;;;10.93;6.43;;;;;39.40;96931.00;;;;5013414;28;20213;-91
2023/07/11 12:23:32;;;;;;;7.33;5.67;;;;;40.20;96931.00;;;;5021134;28;20219;-92
2023/07/11 12:26:36;;;;;;;9.73;6.82;;;;;39.20;96926.00;;;;5022678;28;20221;-91
2023/07/11 12:29:50;;;;;;;8.00;6.82;;;;;38.30;96934.00;;;;5026105;28;20193;-91
2023/07/11 12:32:48;;;;;;;8.60;7.35;;;;;38.50;96935.00;;;;5024239;28;20209;-91
2023/07/11 12:35:38;;;;;;;7.18;6.03;;;;;39.40;96923.00;;;;5026649;28;20210;-91
2023/07/11 12:38:32;;;;;;;8.65;6.60;;;;;38.80;96927.00;;;;5026090;28;20244;-91
2023/07/11 12:41:27;;;;;;;11.00;7.53;;;;;38.90;96927.00;;;;5022227;28;20201;-92
2023/07/11 12:44:24;;;;;;;10.23;6.80;;;;;37.90;96915.00;;;;5026015;28;20581;-90
2023/07/11 12:47:17;;;;;;;8.93;6.38;;;;;40.00;96908.00;;;;5013158;28;20234;-91
2023/07/11 12:50:08;;;;;;;9.05;6.07;;;;;40.10;96913.00;;;;5022926;28;20221;-91
2023/07/11 12:53:02;;;;;;;8.35;5.80;;;;;40.50;96907.00;;;;5030644;28;20205;-91
2023/07/11 12:55:52;;;;;;;7.35;6.65;;;;;41.30;96910.00;;;;5028801;28;20211;-92
2023/07/11 12:58:42;;;;;;;9.13;5.63;;;;;41.80;96904.00;;;;5030431;28;20221;-91
2023/07/11 13:01:37;;;;;;;6.28;5.50;;;;;42.20;96899.00;;;;5031125;28;20243;-93
2023/07/11 13:04:32;;;;;;;6.75;5.80;;;;;41.10;96893.00;;;;5026333;28;20212;-92
2023/07/11 13:07:23;;;;;;;6.45;5.88;;;;;42.00;96898.00;;;;5032211;28;20241;-92
2023/07/11 13:10:20;;;;;;;10.30;6.97;;;;;42.80;96888.00;;;;5017807;28;20296;-92
2023/07/11 13:13:12;;;;;;;6.72;6.13;;;;;40.90;96956.00;;;;5028030;28;20254;-92
2023/07/11 13:16:04;;;;;;;7.30;6.55;;;;;40.20;96946.00;;;;5030394;28;20205;-92
2023/07/11 13:18:55;;;;;;;8.77;6.50;;;;;40.20;96895.00;;;;5024121;28;20946;-92
2023/07/11 13:21:45;;;;;;;7.32;6.32;;;;;40.50;96892.00;;;;5030606;28;20212;-92
2023/07/11 13:24:34;;;;;;;8.35;5.85;;;;;41.10;96897.00;;;;5028899;28;20213;-93
2023/07/11 13:27:29;;;;;;;6.80;6.15;;;;;41.80;96886.00;;;;5026912;28;20236;-92
2023/07/11 13:30:21;;;;;;;8.95;6.25;;;;;41.10;96890.00;;;;5030277;28;20217;-93
2023/07/11 13:33:15;;;;;;;7.80;6.05;;;;;41.60;96888.00;;;;5030705;28;20714;-94
2023/07/11 13:36:16;;;;;;;7.13;5.75;;;;;42.40;96887.00;;;;5033832;28;20588;-94
2023/07/11 13:39:12;;;;;;;7.03;6.28;;;;;43.00;96880.00;;;;5034079;28;20232;-92
2023/07/11 13:42:03;;;;;;;5.82;5.32;;;;;42.80;96874.00;;;;5033654;28;20201;-93
2023/07/11 13:44:53;;;;;;;8.85;5.95;;;;;43.20;96887.00;;;;5025460;28;20197;-93
2023/07/11 13:47:44;;;;;;;8.88;5.93;;;;;43.50;96886.00;;;;5032589;28;20247;-93
2023/07/11 13:50:33;;;;;;;9.63;5.50;;;;;41.50;96877.00;;;;5028006;28;20197;-94
2023/07/11 13:53:24;;;;;;;8.27;7.05;;;;;43.20;96876.00;;;;5032642;28;20209;-94
2023/07/11 13:56:13;;;;;;;8.60;5.68;;;;;42.90;96864.00;;;;5025176;28;20232;-93
2023/07/11 13:59:03;;;;;;;6.82;5.80;;;;;42.10;96871.00;;;;5031976;28;20232;-92
2023/07/11 14:01:53;;;;;;;6.28;5.75;;;;;42.20;96874.00;;;;5024032;28;20201;-90
2023/07/11 14:04:46;;;;;;;9.05;6.88;;;;;39.50;96871.00;;;;5025776;28;20209;-91
2023/07/11 14:07:35;;;;;;;6.70;5.97;;;;;41.80;96875.00;;;;5031587;28;20237;-93
2023/07/11 14:10:28;;;;;;;6.53;5.93;;;;;42.30;96871.00;;;;5020184;28;20204;-93
2023/07/11 14:13:21;;;;;;;7.10;6.50;;;;;42.30;96863.00;;;;5022545;28;20331;-92
2023/07/11 14:16:11;;;;;;;8.65;5.75;;;;;42.40;96868.00;;;;5024592;28;20702;-92